sensor_id;sensor_type;location;lat;lon;timestamp;P1;durP1;ratioP1;P2;durP2;ratioP2
76228;SDS011;65021;53.174;18.160;2022-11-18T00:00:35;26.90;;;10.80;;
76228;SDS011;65021;53.174;18.160;2022-11-18T00:03:01;22.50;;;10.30;;
76228;SDS011;65021;53.174;18.160;2022-11-18T00:05:28;25.50;;;11.00;;
76228;SDS011;65021;53.174;18.160;2022-11-18T00:07:55;9.50;;;4.60;;
76228;SDS011;65021;53.174;18.160;2022-11-18T00:10:21;20.30;;;9.50;;
76228;SDS011;65021;53.174;18.160;2022-11-18T00:12:48;14.00;;;6.40;;
76228;SDS011;65021;53.174;18.160;2022-11-18T00:15:33;20.90;;;8.60;;
76228;SDS011;65021;53.174;18.160;2022-11-18T00:17:59;24.80;;;9.80;;
76228;SDS011;65021;53.174;18.160;2022-11-18T00:20:26;23.90;;;10.20;;
76228;SDS011;65021;53.174;18.160;2022-11-18T00:22:52;22.50;;;10.60;;
76228;SDS011;65021;53.174;18.160;2022-11-18T00:25:19;21.80;;;10.20;;
76228;SDS011;65021;53.174;18.160;2022-11-18T00:27:46;22.10;;;9.30;;
76228;SDS011;65021;53.174;18.160;2022-11-18T00:30:12;15.70;;;6.90;;
76228;SDS011;65021;53.174;18.160;2022-11-18T00:32:39;23.00;;;9.90;;
76228;SDS011;65021;53.174;18.160;2022-11-18T00:35:05;17.90;;;7.90;;
76228;SDS011;65021;53.174;18.160;2022-11-18T00:37:32;27.40;;;12.40;;
76228;SDS011;65021;53.174;18.160;2022-11-18T00:39:59;28.20;;;10.90;;
76228;SDS011;65021;53.174;18.160;2022-11-18T00:42:26;22.50;;;10.10;;
76228;SDS011;65021;53.174;18.160;2022-11-18T00:45:11;20.30;;;9.70;;
76228;SDS011;65021;53.174;18.160;2022-11-18T00:47:37;18.70;;;9.80;;
76228;SDS011;65021;53.174;18.160;2022-11-18T00:50:04;20.10;;;9.50;;
76228;SDS011;65021;53.174;18.160;2022-11-18T00:52:31;20.10;;;10.00;;
76228;SDS011;65021;53.174;18.160;2022-11-18T00:54:57;19.70;;;8.60;;
76228;SDS011;65021;53.174;18.160;2022-11-18T00:57:24;22.30;;;9.50;;
76228;SDS011;65021;53.174;18.160;2022-11-18T00:59:50;18.00;;;8.40;;
76228;SDS011;65021;53.174;18.160;2022-11-18T01:02:17;17.80;;;7.30;;
76228;SDS011;65021;53.174;18.160;2022-11-18T01:04:43;18.30;;;9.60;;
76228;SDS011;65021;53.174;18.160;2022-11-18T01:07:10;20.30;;;9.60;;
76228;SDS011;65021;53.174;18.160;2022-11-18T01:09:36;17.20;;;8.90;;
76228;SDS011;65021;53.174;18.160;2022-11-18T01:12:03;18.20;;;9.10;;
76228;SDS011;65021;53.174;18.160;2022-11-18T01:14:49;14.50;;;6.90;;
76228;SDS011;65021;53.174;18.160;2022-11-18T01:17:15;21.80;;;9.60;;
76228;SDS011;65021;53.174;18.160;2022-11-18T01:19:42;21.60;;;10.60;;
76228;SDS011;65021;53.174;18.160;2022-11-18T01:22:08;19.00;;;9.80;;
76228;SDS011;65021;53.174;18.160;2022-11-18T01:24:35;15.30;;;7.30;;
76228;SDS011;65021;53.174;18.160;2022-11-18T01:27:01;9.50;;;4.50;;
76228;SDS011;65021;53.174;18.160;2022-11-18T01:29:28;12.20;;;6.20;;
76228;SDS011;65021;53.174;18.160;2022-11-18T01:31:55;15.90;;;8.20;;
76228;SDS011;65021;53.174;18.160;2022-11-18T01:34:21;18.30;;;8.70;;
76228;SDS011;65021;53.174;18.160;2022-11-18T01:36:50;21.50;;;9.90;;
76228;SDS011;65021;53.174;18.160;2022-11-18T01:39:17;23.30;;;9.50;;
76228;SDS011;65021;53.174;18.160;2022-11-18T01:41:44;22.10;;;10.90;;
76228;SDS011;65021;53.174;18.160;2022-11-18T01:47:15;20.20;;;10.10;;
76228;SDS011;65021;53.174;18.160;2022-11-18T01:49:42;17.00;;;8.20;;
76228;SDS011;65021;53.174;18.160;2022-11-18T01:52:09;22.70;;;9.80;;
76228;SDS011;65021;53.174;18.160;2022-11-18T01:54:38;16.70;;;7.20;;
76228;SDS011;65021;53.174;18.160;2022-11-18T01:57:11;21.20;;;10.70;;
76228;SDS011;65021;53.174;18.160;2022-11-18T01:59:42;22.30;;;9.40;;
76228;SDS011;65021;53.174;18.160;2022-11-18T02:02:13;11.10;;;5.70;;
76228;SDS011;65021;53.174;18.160;2022-11-18T02:04:42;19.70;;;9.70;;
76228;SDS011;65021;53.174;18.160;2022-11-18T02:07:12;18.90;;;9.00;;
76228;SDS011;65021;53.174;18.160;2022-11-18T02:09:39;11.60;;;6.20;;
76228;SDS011;65021;53.174;18.160;2022-11-18T02:12:07;15.00;;;7.80;;
76228;SDS011;65021;53.174;18.160;2022-11-18T02:14:35;17.90;;;9.10;;
76228;SDS011;65021;53.174;18.160;2022-11-18T02:30:49;10.90;;;5.60;;
76228;SDS011;65021;53.174;18.160;2022-11-18T02:33:22;12.90;;;6.80;;
76228;SDS011;65021;53.174;18.160;2022-11-18T02:36:00;8.90;;;5.00;;
76228;SDS011;65021;53.174;18.160;2022-11-18T02:38:34;13.00;;;6.70;;
76228;SDS011;65021;53.174;18.160;2022-11-18T02:41:07;9.70;;;5.00;;
76228;SDS011;65021;53.174;18.160;2022-11-18T02:43:39;10.90;;;5.90;;
76228;SDS011;65021;53.174;18.160;2022-11-18T02:46:13;14.20;;;6.80;;
76228;SDS011;65021;53.174;18.160;2022-11-18T02:48:47;10.90;;;5.50;;
76228;SDS011;65021;53.174;18.160;2022-11-18T02:51:17;9.90;;;5.40;;
76228;SDS011;65021;53.174;18.160;2022-11-18T02:53:50;8.70;;;4.30;;
76228;SDS011;65021;53.174;18.160;2022-11-18T02:56:20;10.10;;;5.20;;
76228;SDS011;65021;53.174;18.160;2022-11-18T02:58:48;12.00;;;5.20;;
76228;SDS011;65021;53.174;18.160;2022-11-18T03:01:15;6.00;;;3.20;;
76228;SDS011;65021;53.174;18.160;2022-11-18T03:03:45;11.70;;;5.80;;
76228;SDS011;65021;53.174;18.160;2022-11-18T03:06:22;7.80;;;4.10;;
76228;SDS011;65021;53.174;18.160;2022-11-18T03:23:20;9.90;;;4.50;;
76228;SDS011;65021;53.174;18.160;2022-11-18T03:33:37;6.00;;;2.40;;
76228;SDS011;65021;53.174;18.160;2022-11-18T03:36:08;6.40;;;3.10;;
76228;SDS011;65021;53.174;18.160;2022-11-18T03:38:39;5.90;;;3.20;;
76228;SDS011;65021;53.174;18.160;2022-11-18T03:41:12;4.70;;;2.30;;
76228;SDS011;65021;53.174;18.160;2022-11-18T03:43:43;8.30;;;3.90;;
76228;SDS011;65021;53.174;18.160;2022-11-18T03:46:20;7.60;;;3.30;;
76228;SDS011;65021;53.174;18.160;2022-11-18T03:48:59;6.90;;;3.90;;
76228;SDS011;65021;53.174;18.160;2022-11-18T03:51:46;6.90;;;3.50;;
76228;SDS011;65021;53.174;18.160;2022-11-18T03:54:21;7.60;;;4.00;;
76228;SDS011;65021;53.174;18.160;2022-11-18T04:00:18;7.30;;;3.80;;
76228;SDS011;65021;53.174;18.160;2022-11-18T04:02:45;6.70;;;3.40;;
76228;SDS011;65021;53.174;18.160;2022-11-18T04:05:14;9.00;;;4.10;;
76228;SDS011;65021;53.174;18.160;2022-11-18T04:15:30;6.70;;;3.70;;
76228;SDS011;65021;53.174;18.160;2022-11-18T04:17:57;6.40;;;3.60;;
76228;SDS011;65021;53.174;18.160;2022-11-18T04:20:24;7.30;;;3.40;;
76228;SDS011;65021;53.174;18.160;2022-11-18T04:22:53;6.50;;;3.90;;
76228;SDS011;65021;53.174;18.160;2022-11-18T04:25:20;6.50;;;3.60;;
76228;SDS011;65021;53.174;18.160;2022-11-18T04:27:47;8.00;;;3.60;;
76228;SDS011;65021;53.174;18.160;2022-11-18T04:30:13;8.80;;;3.50;;
76228;SDS011;65021;53.174;18.160;2022-11-18T04:32:40;6.90;;;3.40;;
76228;SDS011;65021;53.174;18.160;2022-11-18T04:35:06;4.30;;;2.50;;
76228;SDS011;65021;53.174;18.160;2022-11-18T04:37:33;4.30;;;2.00;;
76228;SDS011;65021;53.174;18.160;2022-11-18T04:40:00;4.10;;;2.00;;
76228;SDS011;65021;53.174;18.160;2022-11-18T04:42:26;7.10;;;3.30;;
76228;SDS011;65021;53.174;18.160;2022-11-18T04:44:53;5.90;;;3.20;;
76228;SDS011;65021;53.174;18.160;2022-11-18T04:47:19;8.40;;;3.70;;
76228;SDS011;65021;53.174;18.160;2022-11-18T04:49:46;6.70;;;3.60;;
76228;SDS011;65021;53.174;18.160;2022-11-18T04:52:13;8.10;;;3.90;;
76228;SDS011;65021;53.174;18.160;2022-11-18T04:54:40;7.20;;;3.10;;
76228;SDS011;65021;53.174;18.160;2022-11-18T04:57:06;7.30;;;3.20;;
76228;SDS011;65021;53.174;18.160;2022-11-18T04:59:33;7.40;;;3.40;;
76228;SDS011;65021;53.174;18.160;2022-11-18T05:01:59;7.30;;;3.70;;
76228;SDS011;65021;53.174;18.160;2022-11-18T05:04:27;8.00;;;4.00;;
76228;SDS011;65021;53.174;18.160;2022-11-18T05:06:56;7.60;;;3.90;;
76228;SDS011;65021;53.174;18.160;2022-11-18T05:09:24;7.20;;;3.00;;
76228;SDS011;65021;53.174;18.160;2022-11-18T05:11:51;6.20;;;3.30;;
76228;SDS011;65021;53.174;18.160;2022-11-18T05:14:37;6.60;;;3.50;;
76228;SDS011;65021;53.174;18.160;2022-11-18T05:17:05;7.80;;;3.70;;
76228;SDS011;65021;53.174;18.160;2022-11-18T05:19:33;6.10;;;3.20;;
76228;SDS011;65021;53.174;18.160;2022-11-18T05:22:02;5.70;;;2.90;;
76228;SDS011;65021;53.174;18.160;2022-11-18T05:24:28;5.80;;;2.40;;
76228;SDS011;65021;53.174;18.160;2022-11-18T05:26:55;6.80;;;3.10;;
76228;SDS011;65021;53.174;18.160;2022-11-18T05:29:21;8.60;;;3.70;;
76228;SDS011;65021;53.174;18.160;2022-11-18T05:31:48;7.40;;;3.60;;
76228;SDS011;65021;53.174;18.160;2022-11-18T05:34:16;8.00;;;3.60;;
76228;SDS011;65021;53.174;18.160;2022-11-18T05:36:43;6.00;;;2.80;;
76228;SDS011;65021;53.174;18.160;2022-11-18T05:39:09;6.10;;;2.90;;
76228;SDS011;65021;53.174;18.160;2022-11-18T05:41:36;7.60;;;3.40;;
76228;SDS011;65021;53.174;18.160;2022-11-18T05:44:21;9.20;;;3.70;;
76228;SDS011;65021;53.174;18.160;2022-11-18T05:46:47;6.40;;;3.30;;
76228;SDS011;65021;53.174;18.160;2022-11-18T05:49:14;6.40;;;2.70;;
76228;SDS011;65021;53.174;18.160;2022-11-18T05:51:40;7.30;;;3.20;;
76228;SDS011;65021;53.174;18.160;2022-11-18T05:54:07;7.50;;;3.20;;
76228;SDS011;65021;53.174;18.160;2022-11-18T05:56:39;5.20;;;2.60;;
76228;SDS011;65021;53.174;18.160;2022-11-18T05:59:07;6.00;;;2.70;;
76228;SDS011;65021;53.174;18.160;2022-11-18T06:01:35;4.80;;;2.30;;
76228;SDS011;65021;53.174;18.160;2022-11-18T06:04:07;6.00;;;3.10;;
76228;SDS011;65021;53.174;18.160;2022-11-18T06:06:38;6.60;;;2.90;;
76228;SDS011;65021;53.174;18.160;2022-11-18T06:09:05;5.30;;;2.80;;
76228;SDS011;65021;53.174;18.160;2022-11-18T06:11:44;6.80;;;2.50;;
76228;SDS011;65021;53.174;18.160;2022-11-18T06:14:20;8.90;;;2.90;;
76228;SDS011;65021;53.174;18.160;2022-11-18T06:16:53;6.90;;;2.90;;
76228;SDS011;65021;53.174;18.160;2022-11-18T06:19:23;5.80;;;2.50;;
76228;SDS011;65021;53.174;18.160;2022-11-18T06:21:51;4.70;;;1.90;;
76228;SDS011;65021;53.174;18.160;2022-11-18T06:24:18;6.40;;;2.30;;
76228;SDS011;65021;53.174;18.160;2022-11-18T06:26:45;5.30;;;2.50;;
76228;SDS011;65021;53.174;18.160;2022-11-18T06:29:12;6.80;;;2.70;;
76228;SDS011;65021;53.174;18.160;2022-11-18T06:31:43;5.30;;;2.50;;
76228;SDS011;65021;53.174;18.160;2022-11-18T06:34:10;5.90;;;2.40;;
76228;SDS011;65021;53.174;18.160;2022-11-18T06:36:36;7.00;;;3.10;;
76228;SDS011;65021;53.174;18.160;2022-11-18T06:39:03;5.30;;;2.60;;
76228;SDS011;65021;53.174;18.160;2022-11-18T06:41:31;6.00;;;2.70;;
76228;SDS011;65021;53.174;18.160;2022-11-18T06:43:58;1.90;;;0.70;;
76228;SDS011;65021;53.174;18.160;2022-11-18T06:46:25;13.90;;;5.70;;
76228;SDS011;65021;53.174;18.160;2022-11-18T06:49:10;5.80;;;2.50;;
76228;SDS011;65021;53.174;18.160;2022-11-18T06:51:37;7.30;;;3.50;;
76228;SDS011;65021;53.174;18.160;2022-11-18T06:54:04;6.70;;;2.60;;
76228;SDS011;65021;53.174;18.160;2022-11-18T06:56:31;10.40;;;4.00;;
76228;SDS011;65021;53.174;18.160;2022-11-18T06:58:59;8.60;;;3.60;;
76228;SDS011;65021;53.174;18.160;2022-11-18T07:01:29;9.30;;;3.60;;
76228;SDS011;65021;53.174;18.160;2022-11-18T07:03:58;8.70;;;3.90;;
76228;SDS011;65021;53.174;18.160;2022-11-18T07:06:26;7.50;;;2.50;;
76228;SDS011;65021;53.174;18.160;2022-11-18T07:08:54;7.90;;;3.80;;
76228;SDS011;65021;53.174;18.160;2022-11-18T07:11:23;8.40;;;3.60;;
76228;SDS011;65021;53.174;18.160;2022-11-18T07:13:50;6.30;;;2.20;;
76228;SDS011;65021;53.174;18.160;2022-11-18T07:16:18;8.40;;;3.60;;
76228;SDS011;65021;53.174;18.160;2022-11-18T07:18:46;8.30;;;3.40;;
76228;SDS011;65021;53.174;18.160;2022-11-18T07:21:18;7.40;;;3.00;;
76228;SDS011;65021;53.174;18.160;2022-11-18T07:23:46;5.90;;;2.50;;
76228;SDS011;65021;53.174;18.160;2022-11-18T07:26:13;8.20;;;3.80;;
76228;SDS011;65021;53.174;18.160;2022-11-18T07:28:40;6.50;;;2.80;;
76228;SDS011;65021;53.174;18.160;2022-11-18T07:31:09;7.00;;;3.50;;
76228;SDS011;65021;53.174;18.160;2022-11-18T07:33:38;9.80;;;4.10;;
76228;SDS011;65021;53.174;18.160;2022-11-18T07:36:10;4.10;;;1.30;;
76228;SDS011;65021;53.174;18.160;2022-11-18T07:38:38;8.30;;;3.80;;
76228;SDS011;65021;53.174;18.160;2022-11-18T07:41:07;13.70;;;3.40;;
76228;SDS011;65021;53.174;18.160;2022-11-18T07:43:41;8.60;;;3.70;;
76228;SDS011;65021;53.174;18.160;2022-11-18T07:48:49;8.00;;;3.50;;
76228;SDS011;65021;53.174;18.160;2022-11-18T07:51:18;7.80;;;2.90;;
76228;SDS011;65021;53.174;18.160;2022-11-18T07:53:46;6.20;;;2.20;;
76228;SDS011;65021;53.174;18.160;2022-11-18T07:56:13;10.10;;;4.50;;
76228;SDS011;65021;53.174;18.160;2022-11-18T07:58:40;7.90;;;4.00;;
76228;SDS011;65021;53.174;18.160;2022-11-18T08:03:42;9.50;;;4.60;;
76228;SDS011;65021;53.174;18.160;2022-11-18T08:06:09;10.40;;;4.60;;
76228;SDS011;65021;53.174;18.160;2022-11-18T08:08:37;8.70;;;3.70;;
76228;SDS011;65021;53.174;18.160;2022-11-18T08:11:05;8.70;;;4.00;;
76228;SDS011;65021;53.174;18.160;2022-11-18T08:13:33;11.00;;;3.70;;
76228;SDS011;65021;53.174;18.160;2022-11-18T08:16:01;7.70;;;3.40;;
76228;SDS011;65021;53.174;18.160;2022-11-18T08:18:29;10.50;;;4.30;;
76228;SDS011;65021;53.174;18.160;2022-11-18T08:21:00;8.60;;;4.20;;
76228;SDS011;65021;53.174;18.160;2022-11-18T08:23:30;8.70;;;3.50;;
76228;SDS011;65021;53.174;18.160;2022-11-18T08:26:04;11.20;;;3.80;;
76228;SDS011;65021;53.174;18.160;2022-11-18T08:28:34;8.50;;;2.80;;
76228;SDS011;65021;53.174;18.160;2022-11-18T08:31:08;10.10;;;4.00;;
76228;SDS011;65021;53.174;18.160;2022-11-18T08:33:56;8.80;;;2.50;;
76228;SDS011;65021;53.174;18.160;2022-11-18T08:36:25;7.30;;;3.20;;
76228;SDS011;65021;53.174;18.160;2022-11-18T08:38:57;6.40;;;3.00;;
76228;SDS011;65021;53.174;18.160;2022-11-18T08:41:35;7.40;;;3.10;;
76228;SDS011;65021;53.174;18.160;2022-11-18T08:44:04;8.60;;;3.40;;
76228;SDS011;65021;53.174;18.160;2022-11-18T08:46:32;7.40;;;2.80;;
76228;SDS011;65021;53.174;18.160;2022-11-18T08:48:58;6.10;;;2.30;;
76228;SDS011;65021;53.174;18.160;2022-11-18T08:51:25;6.60;;;2.70;;
76228;SDS011;65021;53.174;18.160;2022-11-18T08:53:52;7.90;;;2.90;;
76228;SDS011;65021;53.174;18.160;2022-11-18T08:56:19;5.00;;;1.80;;
76228;SDS011;65021;53.174;18.160;2022-11-18T08:58:47;7.90;;;3.10;;
76228;SDS011;65021;53.174;18.160;2022-11-18T09:01:14;7.10;;;2.90;;
76228;SDS011;65021;53.174;18.160;2022-11-18T09:03:40;5.90;;;2.30;;
76228;SDS011;65021;53.174;18.160;2022-11-18T09:06:14;4.50;;;2.00;;
76228;SDS011;65021;53.174;18.160;2022-11-18T09:08:41;7.00;;;3.30;;
76228;SDS011;65021;53.174;18.160;2022-11-18T09:11:10;6.90;;;2.40;;
76228;SDS011;65021;53.174;18.160;2022-11-18T09:13:39;5.90;;;2.20;;
76228;SDS011;65021;53.174;18.160;2022-11-18T09:16:05;6.80;;;2.90;;
76228;SDS011;65021;53.174;18.160;2022-11-18T09:18:32;5.60;;;2.10;;
76228;SDS011;65021;53.174;18.160;2022-11-18T09:21:00;4.80;;;2.30;;
76228;SDS011;65021;53.174;18.160;2022-11-18T09:23:34;6.90;;;2.80;;
76228;SDS011;65021;53.174;18.160;2022-11-18T09:26:06;6.00;;;2.70;;
76228;SDS011;65021;53.174;18.160;2022-11-18T09:28:35;6.40;;;2.60;;
76228;SDS011;65021;53.174;18.160;2022-11-18T09:31:03;4.70;;;2.30;;
76228;SDS011;65021;53.174;18.160;2022-11-18T09:33:31;5.30;;;2.30;;
76228;SDS011;65021;53.174;18.160;2022-11-18T09:35:58;6.20;;;2.00;;
76228;SDS011;65021;53.174;18.160;2022-11-18T09:38:24;4.90;;;1.60;;
76228;SDS011;65021;53.174;18.160;2022-11-18T09:41:01;5.20;;;2.30;;
76228;SDS011;65021;53.174;18.160;2022-11-18T09:49:30;6.80;;;3.00;;
76228;SDS011;65021;53.174;18.160;2022-11-18T09:52:02;6.00;;;2.50;;
76228;SDS011;65021;53.174;18.160;2022-11-18T09:54:34;7.30;;;2.80;;
76228;SDS011;65021;53.174;18.160;2022-11-18T09:57:07;5.30;;;2.10;;
76228;SDS011;65021;53.174;18.160;2022-11-18T09:59:39;4.40;;;1.60;;
76228;SDS011;65021;53.174;18.160;2022-11-18T10:02:29;4.40;;;1.70;;
76228;SDS011;65021;53.174;18.160;2022-11-18T10:05:00;3.50;;;1.30;;
76228;SDS011;65021;53.174;18.160;2022-11-18T10:10:48;6.30;;;2.00;;
76228;SDS011;65021;53.174;18.160;2022-11-18T10:22:05;4.40;;;1.80;;
76228;SDS011;65021;53.174;18.160;2022-11-18T10:24:38;3.20;;;1.40;;
76228;SDS011;65021;53.174;18.160;2022-11-18T10:27:12;4.50;;;1.70;;
76228;SDS011;65021;53.174;18.160;2022-11-18T10:29:40;3.80;;;1.60;;
76228;SDS011;65021;53.174;18.160;2022-11-18T10:32:12;5.20;;;1.50;;
76228;SDS011;65021;53.174;18.160;2022-11-18T10:40:03;6.00;;;1.90;;
76228;SDS011;65021;53.174;18.160;2022-11-18T10:45:16;3.40;;;1.20;;
76228;SDS011;65021;53.174;18.160;2022-11-18T10:47:44;4.70;;;1.70;;
76228;SDS011;65021;53.174;18.160;2022-11-18T10:56:06;4.60;;;1.90;;
76228;SDS011;65021;53.174;18.160;2022-11-18T10:58:48;4.60;;;1.30;;
76228;SDS011;65021;53.174;18.160;2022-11-18T11:06:38;4.50;;;1.50;;
76228;SDS011;65021;53.174;18.160;2022-11-18T11:09:48;2.60;;;0.90;;
76228;SDS011;65021;53.174;18.160;2022-11-18T11:14:48;2.90;;;1.00;;
76228;SDS011;65021;53.174;18.160;2022-11-18T11:17:31;1.80;;;0.80;;
76228;SDS011;65021;53.174;18.160;2022-11-18T11:22:43;2.90;;;1.20;;
76228;SDS011;65021;53.174;18.160;2022-11-18T11:25:14;4.50;;;1.20;;
76228;SDS011;65021;53.174;18.160;2022-11-18T11:30:14;3.80;;;1.30;;
76228;SDS011;65021;53.174;18.160;2022-11-18T11:41:21;3.90;;;1.40;;
76228;SDS011;65021;53.174;18.160;2022-11-18T11:47:01;3.80;;;1.50;;
76228;SDS011;65021;53.174;18.160;2022-11-18T11:52:49;2.50;;;0.90;;
76228;SDS011;65021;53.174;18.160;2022-11-18T11:58:30;3.30;;;1.20;;
76228;SDS011;65021;53.174;18.160;2022-11-18T12:03:44;3.40;;;1.60;;
76228;SDS011;65021;53.174;18.160;2022-11-18T12:06:12;3.30;;;1.50;;
76228;SDS011;65021;53.174;18.160;2022-11-18T12:08:45;3.90;;;1.60;;
76228;SDS011;65021;53.174;18.160;2022-11-18T12:11:25;4.10;;;1.20;;
76228;SDS011;65021;53.174;18.160;2022-11-18T12:14:12;2.80;;;1.20;;
76228;SDS011;65021;53.174;18.160;2022-11-18T12:16:51;3.20;;;1.10;;
76228;SDS011;65021;53.174;18.160;2022-11-18T12:19:27;2.70;;;0.90;;
76228;SDS011;65021;53.174;18.160;2022-11-18T12:21:57;3.80;;;1.50;;
76228;SDS011;65021;53.174;18.160;2022-11-18T12:24:29;2.60;;;0.90;;
76228;SDS011;65021;53.174;18.160;2022-11-18T12:29:53;2.60;;;1.00;;
76228;SDS011;65021;53.174;18.160;2022-11-18T12:35:03;3.20;;;1.10;;
76228;SDS011;65021;53.174;18.160;2022-11-18T12:43:03;3.80;;;1.30;;
76228;SDS011;65021;53.174;18.160;2022-11-18T12:46:07;3.10;;;1.20;;
76228;SDS011;65021;53.174;18.160;2022-11-18T12:51:09;4.00;;;1.80;;
76228;SDS011;65021;53.174;18.160;2022-11-18T12:53:56;3.00;;;1.30;;
76228;SDS011;65021;53.174;18.160;2022-11-18T12:56:23;3.70;;;1.30;;
76228;SDS011;65021;53.174;18.160;2022-11-18T12:58:53;1.70;;;0.70;;
76228;SDS011;65021;53.174;18.160;2022-11-18T13:01:24;3.70;;;1.30;;
76228;SDS011;65021;53.174;18.160;2022-11-18T13:03:57;4.30;;;1.50;;
76228;SDS011;65021;53.174;18.160;2022-11-18T13:06:41;2.50;;;1.10;;
76228;SDS011;65021;53.174;18.160;2022-11-18T13:09:14;2.90;;;1.20;;
76228;SDS011;65021;53.174;18.160;2022-11-18T13:11:50;3.50;;;1.30;;
76228;SDS011;65021;53.174;18.160;2022-11-18T13:14:24;2.60;;;0.70;;
76228;SDS011;65021;53.174;18.160;2022-11-18T13:20:21;2.10;;;1.00;;
76228;SDS011;65021;53.174;18.160;2022-11-18T13:23:00;3.80;;;1.40;;
76228;SDS011;65021;53.174;18.160;2022-11-18T13:25:46;3.20;;;1.20;;
76228;SDS011;65021;53.174;18.160;2022-11-18T13:30:58;4.70;;;1.20;;
76228;SDS011;65021;53.174;18.160;2022-11-18T13:33:32;4.20;;;1.80;;
76228;SDS011;65021;53.174;18.160;2022-11-18T13:36:01;3.10;;;0.90;;
76228;SDS011;65021;53.174;18.160;2022-11-18T13:38:28;5.30;;;1.40;;
76228;SDS011;65021;53.174;18.160;2022-11-18T13:40:54;2.30;;;0.90;;
76228;SDS011;65021;53.174;18.160;2022-11-18T13:46:02;3.60;;;1.30;;
76228;SDS011;65021;53.174;18.160;2022-11-18T13:48:32;3.00;;;1.50;;
76228;SDS011;65021;53.174;18.160;2022-11-18T13:51:03;4.50;;;1.80;;
76228;SDS011;65021;53.174;18.160;2022-11-18T13:53:33;4.10;;;1.50;;
76228;SDS011;65021;53.174;18.160;2022-11-18T13:56:04;4.60;;;1.40;;
76228;SDS011;65021;53.174;18.160;2022-11-18T13:58:41;5.50;;;1.60;;
76228;SDS011;65021;53.174;18.160;2022-11-18T14:01:24;3.30;;;1.40;;
76228;SDS011;65021;53.174;18.160;2022-11-18T14:03:53;4.50;;;2.00;;
76228;SDS011;65021;53.174;18.160;2022-11-18T14:11:36;5.70;;;2.10;;
76228;SDS011;65021;53.174;18.160;2022-11-18T14:14:05;5.50;;;1.90;;
76228;SDS011;65021;53.174;18.160;2022-11-18T14:16:34;4.40;;;2.10;;
76228;SDS011;65021;53.174;18.160;2022-11-18T14:19:02;4.20;;;1.50;;
76228;SDS011;65021;53.174;18.160;2022-11-18T14:21:30;2.90;;;0.90;;
76228;SDS011;65021;53.174;18.160;2022-11-18T14:24:00;6.20;;;2.20;;
76228;SDS011;65021;53.174;18.160;2022-11-18T14:26:34;5.60;;;2.50;;
76228;SDS011;65021;53.174;18.160;2022-11-18T14:29:15;7.30;;;2.70;;
76228;SDS011;65021;53.174;18.160;2022-11-18T14:32:10;4.80;;;2.20;;
76228;SDS011;65021;53.174;18.160;2022-11-18T14:34:41;6.60;;;3.00;;
76228;SDS011;65021;53.174;18.160;2022-11-18T14:37:11;3.40;;;1.80;;
76228;SDS011;65021;53.174;18.160;2022-11-18T14:39:39;5.60;;;2.50;;
76228;SDS011;65021;53.174;18.160;2022-11-18T14:42:09;7.20;;;2.50;;
76228;SDS011;65021;53.174;18.160;2022-11-18T14:44:39;4.20;;;1.20;;
76228;SDS011;65021;53.174;18.160;2022-11-18T14:47:10;5.80;;;2.90;;
76228;SDS011;65021;53.174;18.160;2022-11-18T14:49:44;5.70;;;2.20;;
76228;SDS011;65021;53.174;18.160;2022-11-18T14:52:11;6.40;;;2.40;;
76228;SDS011;65021;53.174;18.160;2022-11-18T14:54:37;5.70;;;2.00;;
76228;SDS011;65021;53.174;18.160;2022-11-18T14:57:04;5.40;;;2.10;;
76228;SDS011;65021;53.174;18.160;2022-11-18T14:59:30;4.90;;;1.80;;
76228;SDS011;65021;53.174;18.160;2022-11-18T15:01:57;4.90;;;2.30;;
76228;SDS011;65021;53.174;18.160;2022-11-18T15:04:24;4.90;;;1.90;;
76228;SDS011;65021;53.174;18.160;2022-11-18T15:06:51;5.20;;;2.00;;
76228;SDS011;65021;53.174;18.160;2022-11-18T15:09:18;6.50;;;2.20;;
76228;SDS011;65021;53.174;18.160;2022-11-18T15:11:44;4.90;;;2.00;;
76228;SDS011;65021;53.174;18.160;2022-11-18T15:14:11;5.60;;;2.30;;
76228;SDS011;65021;53.174;18.160;2022-11-18T15:16:37;4.00;;;1.50;;
76228;SDS011;65021;53.174;18.160;2022-11-18T15:19:04;3.70;;;1.60;;
76228;SDS011;65021;53.174;18.160;2022-11-18T15:21:35;4.40;;;1.60;;
76228;SDS011;65021;53.174;18.160;2022-11-18T15:24:01;5.10;;;1.70;;
76228;SDS011;65021;53.174;18.160;2022-11-18T15:26:36;5.10;;;2.30;;
76228;SDS011;65021;53.174;18.160;2022-11-18T15:29:04;6.10;;;1.60;;
76228;SDS011;65021;53.174;18.160;2022-11-18T15:31:31;3.50;;;1.60;;
76228;SDS011;65021;53.174;18.160;2022-11-18T15:33:58;5.60;;;2.50;;
76228;SDS011;65021;53.174;18.160;2022-11-18T15:36:25;7.10;;;2.70;;
76228;SDS011;65021;53.174;18.160;2022-11-18T15:38:53;5.20;;;2.20;;
76228;SDS011;65021;53.174;18.160;2022-11-18T15:43:48;5.60;;;2.50;;
76228;SDS011;65021;53.174;18.160;2022-11-18T15:46:16;6.50;;;1.90;;
76228;SDS011;65021;53.174;18.160;2022-11-18T15:48:46;5.70;;;2.80;;
76228;SDS011;65021;53.174;18.160;2022-11-18T15:51:16;6.10;;;2.40;;
76228;SDS011;65021;53.174;18.160;2022-11-18T15:53:43;6.50;;;2.70;;
76228;SDS011;65021;53.174;18.160;2022-11-18T15:58:56;5.90;;;2.50;;
76228;SDS011;65021;53.174;18.160;2022-11-18T16:01:28;3.50;;;1.50;;
76228;SDS011;65021;53.174;18.160;2022-11-18T16:03:57;3.70;;;1.80;;
76228;SDS011;65021;53.174;18.160;2022-11-18T16:06:24;5.50;;;2.20;;
76228;SDS011;65021;53.174;18.160;2022-11-18T16:08:51;5.60;;;1.70;;
76228;SDS011;65021;53.174;18.160;2022-11-18T16:11:18;5.00;;;2.00;;
76228;SDS011;65021;53.174;18.160;2022-11-18T16:14:04;5.80;;;1.80;;
76228;SDS011;65021;53.174;18.160;2022-11-18T16:16:32;4.40;;;1.40;;
76228;SDS011;65021;53.174;18.160;2022-11-18T16:19:00;7.40;;;3.30;;
76228;SDS011;65021;53.174;18.160;2022-11-18T16:21:32;5.80;;;2.90;;
76228;SDS011;65021;53.174;18.160;2022-11-18T16:24:01;8.90;;;3.20;;
76228;SDS011;65021;53.174;18.160;2022-11-18T16:26:29;8.30;;;3.30;;
76228;SDS011;65021;53.174;18.160;2022-11-18T16:28:56;9.60;;;2.70;;
76228;SDS011;65021;53.174;18.160;2022-11-18T16:31:23;6.50;;;3.00;;
76228;SDS011;65021;53.174;18.160;2022-11-18T16:36:32;11.00;;;3.90;;
76228;SDS011;65021;53.174;18.160;2022-11-18T16:39:02;8.80;;;3.70;;
76228;SDS011;65021;53.174;18.160;2022-11-18T16:41:30;8.30;;;3.10;;
76228;SDS011;65021;53.174;18.160;2022-11-18T16:43:58;11.70;;;4.40;;
76228;SDS011;65021;53.174;18.160;2022-11-18T16:46:26;8.40;;;3.40;;
76228;SDS011;65021;53.174;18.160;2022-11-18T16:48:54;4.30;;;1.80;;
76228;SDS011;65021;53.174;18.160;2022-11-18T16:51:22;5.80;;;2.60;;
76228;SDS011;65021;53.174;18.160;2022-11-18T16:56:20;7.90;;;3.60;;
76228;SDS011;65021;53.174;18.160;2022-11-18T16:58:48;9.10;;;3.60;;
76228;SDS011;65021;53.174;18.160;2022-11-18T17:01:15;7.80;;;3.80;;
76228;SDS011;65021;53.174;18.160;2022-11-18T17:03:42;9.00;;;3.90;;
76228;SDS011;65021;53.174;18.160;2022-11-18T17:06:08;9.90;;;4.90;;
76228;SDS011;65021;53.174;18.160;2022-11-18T17:08:35;9.60;;;3.70;;
76228;SDS011;65021;53.174;18.160;2022-11-18T17:11:08;9.30;;;4.00;;
76228;SDS011;65021;53.174;18.160;2022-11-18T17:13:36;7.40;;;2.80;;
76228;SDS011;65021;53.174;18.160;2022-11-18T17:16:07;5.80;;;2.90;;
76228;SDS011;65021;53.174;18.160;2022-11-18T17:18:35;6.30;;;2.90;;
76228;SDS011;65021;53.174;18.160;2022-11-18T17:21:03;5.90;;;2.20;;
76228;SDS011;65021;53.174;18.160;2022-11-18T17:23:31;4.20;;;1.50;;
76228;SDS011;65021;53.174;18.160;2022-11-18T17:25:58;5.50;;;2.60;;